createdAt,value
2023-05-22T00:01:22.721Z,15.25
2023-05-22T00:03:03.060Z,15.19
2023-05-22T00:04:43.468Z,15.13
2023-05-22T00:06:23.758Z,15.09
2023-05-22T00:08:04.223Z,15.05
2023-05-22T00:09:44.608Z,15
2023-05-22T00:11:25.003Z,14.96
2023-05-22T00:13:05.532Z,14.9
2023-05-22T00:14:45.898Z,14.82
2023-05-22T00:16:26.291Z,14.74
2023-05-22T00:18:06.771Z,14.69
2023-05-22T00:19:47.079Z,14.64
2023-05-22T00:21:27.449Z,14.55
2023-05-22T00:23:07.768Z,14.49
2023-05-22T00:24:48.270Z,14.44
2023-05-22T00:26:28.701Z,14.42
2023-05-22T00:28:09.024Z,14.41
2023-05-22T00:29:49.462Z,14.4
2023-05-22T00:31:29.844Z,14.35
2023-05-22T00:33:10.237Z,14.27
2023-05-22T00:34:50.728Z,14.25
2023-05-22T00:36:31.104Z,14.2
2023-05-22T00:38:11.398Z,14.16
2023-05-22T00:39:51.771Z,14.11
2023-05-22T00:41:32.116Z,14.06
2023-05-22T00:43:12.640Z,14.04
2023-05-22T00:44:53.022Z,14.04
2023-05-22T00:46:33.545Z,14.03
2023-05-22T00:48:13.821Z,13.99
2023-05-22T00:49:54.161Z,13.94
2023-05-22T00:51:34.641Z,13.92
2023-05-22T00:53:15.015Z,13.92
2023-05-22T00:54:55.394Z,13.93
2023-05-22T00:56:35.976Z,13.89
2023-05-22T00:58:16.208Z,13.89
2023-05-22T00:59:56.623Z,13.84
2023-05-22T01:01:37.039Z,13.77
2023-05-22T01:03:17.566Z,13.8
2023-05-22T01:04:57.825Z,13.72
2023-05-22T01:06:38.350Z,13.68
2023-05-22T01:08:18.694Z,13.65
2023-05-22T01:09:59.134Z,13.61
2023-05-22T01:11:39.520Z,13.56
2023-05-22T01:13:19.964Z,13.54
2023-05-22T01:15:00.280Z,13.51
2023-05-22T01:16:40.721Z,13.48
2023-05-22T01:18:20.934Z,13.44
2023-05-22T01:20:01.583Z,13.42
2023-05-22T01:21:41.712Z,13.37
2023-05-22T01:23:22.109Z,13.35
2023-05-22T01:25:02.511Z,13.27
2023-05-22T01:26:42.872Z,13.25
2023-05-22T01:28:23.304Z,13.21
2023-05-22T01:30:03.742Z,13.17
2023-05-22T01:31:44.137Z,13.13
2023-05-22T01:33:24.847Z,13.06
2023-05-22T01:35:05.025Z,13.07
2023-05-22T01:36:45.364Z,13.01
2023-05-22T01:38:25.707Z,13.03
2023-05-22T01:40:06.221Z,12.98
2023-05-22T01:41:46.628Z,12.98
2023-05-22T01:43:27.026Z,12.94
2023-05-22T01:45:07.414Z,12.9
2023-05-22T01:46:47.760Z,12.88
2023-05-22T01:48:28.201Z,12.84
2023-05-22T01:50:08.695Z,12.84
2023-05-22T01:51:49.027Z,12.82
2023-05-22T01:53:29.481Z,12.84
2023-05-22T01:55:09.922Z,12.84
2023-05-22T01:56:50.402Z,12.79
2023-05-22T01:58:30.816Z,12.75
2023-05-22T02:00:11.274Z,12.7
2023-05-22T02:01:51.760Z,12.69
2023-05-22T02:03:32.258Z,12.66
2023-05-22T02:05:12.564Z,12.64
2023-05-22T02:06:53.007Z,12.57
2023-05-22T02:08:33.426Z,12.56
2023-05-22T02:10:13.812Z,12.52
2023-05-22T02:11:54.250Z,12.5
2023-05-22T02:13:34.697Z,12.49
2023-05-22T02:15:15.096Z,12.4
2023-05-22T02:16:55.595Z,12.4
2023-05-22T02:18:36.009Z,12.39
2023-05-22T02:20:16.313Z,12.38
2023-05-22T02:21:56.743Z,12.35
2023-05-22T02:23:36.945Z,12.35
2023-05-22T02:25:17.675Z,12.33
2023-05-22T02:26:57.532Z,12.28
2023-05-22T02:28:37.891Z,12.29
2023-05-22T02:30:18.323Z,12.32
2023-05-22T02:31:58.664Z,12.31
2023-05-22T02:33:39.026Z,12.28
2023-05-22T02:35:19.427Z,12.29
2023-05-22T02:36:59.858Z,12.28
2023-05-22T02:38:40.248Z,12.28
2023-05-22T02:40:20.717Z,12.25
2023-05-22T02:42:01.099Z,12.21
2023-05-22T02:43:41.570Z,12.15
2023-05-22T02:45:21.954Z,12.17
2023-05-22T02:47:02.455Z,12.14
2023-05-22T02:48:42.783Z,12.14
2023-05-22T02:50:23.249Z,12.11
2023-05-22T02:52:03.668Z,12.12
2023-05-22T02:53:44.089Z,12.06
2023-05-22T02:55:24.507Z,12.09
2023-05-22T02:57:05.019Z,12.05
2023-05-22T02:58:45.355Z,12.05
2023-05-22T03:00:25.688Z,12.01
2023-05-22T03:02:06.143Z,12
2023-05-22T03:03:46.629Z,12.02
2023-05-22T03:05:27.187Z,12
2023-05-22T03:07:07.373Z,11.95
2023-05-22T03:08:47.810Z,11.95
2023-05-22T03:10:28.151Z,11.91
2023-05-22T03:12:08.479Z,11.88
2023-05-22T03:13:49.021Z,11.91
2023-05-22T03:15:29.511Z,11.87
2023-05-22T03:17:09.835Z,11.85
2023-05-22T03:18:50.353Z,11.87
2023-05-22T03:20:30.770Z,11.84
2023-05-22T03:22:11.188Z,11.82
2023-05-22T03:23:51.545Z,11.85
2023-05-22T03:25:31.958Z,11.81
2023-05-22T03:27:12.396Z,11.84
2023-05-22T03:28:52.941Z,11.8
2023-05-22T03:30:33.187Z,11.85
2023-05-22T03:32:13.489Z,11.81
2023-05-22T03:33:54.064Z,11.81
2023-05-22T03:35:34.324Z,11.8
2023-05-22T03:37:14.647Z,11.8
2023-05-22T03:38:55.052Z,11.8
2023-05-22T03:40:35.481Z,11.81
2023-05-22T03:42:15.962Z,11.81
2023-05-22T03:43:56.398Z,11.81
2023-05-22T03:45:36.817Z,11.78
2023-05-22T03:47:17.170Z,11.77
2023-05-22T03:48:57.605Z,11.8
2023-05-22T03:50:38.380Z,11.78
2023-05-22T03:52:18.434Z,11.82
2023-05-22T03:53:58.873Z,11.82
2023-05-22T03:55:39.385Z,11.82
2023-05-22T03:57:19.824Z,11.82
2023-05-22T03:59:00.251Z,11.84
2023-05-22T04:00:40.737Z,11.88
2023-05-22T04:02:21.081Z,11.91
2023-05-22T04:04:01.324Z,11.91
2023-05-22T04:05:41.648Z,11.91
2023-05-22T04:07:21.941Z,11.97
2023-05-22T04:09:02.286Z,11.95
2023-05-22T04:10:42.767Z,11.98
2023-05-22T04:12:23.168Z,12.01
2023-05-22T04:14:03.723Z,12.09
2023-05-22T04:15:44.123Z,12.15
2023-05-22T04:17:24.568Z,12.17
2023-05-22T04:19:04.966Z,12.19
2023-05-22T04:20:45.420Z,12.29
2023-05-22T04:22:25.889Z,12.38
2023-05-22T04:24:06.344Z,12.45
2023-05-22T04:25:46.728Z,12.45
2023-05-22T04:27:27.138Z,12.52
2023-05-22T04:29:07.535Z,12.56
2023-05-22T04:30:47.924Z,12.63
2023-05-22T04:32:28.329Z,12.67
2023-05-22T04:34:08.620Z,12.75
2023-05-22T04:35:49.089Z,12.79
2023-05-22T04:37:29.457Z,12.87
2023-05-22T04:39:09.753Z,12.93
2023-05-22T04:40:50.119Z,12.98
2023-05-22T04:42:30.554Z,13.06
2023-05-22T04:44:11.023Z,13.13
2023-05-22T04:45:51.443Z,13.21
2023-05-22T04:47:32.076Z,13.25
2023-05-22T04:49:12.329Z,13.35
2023-05-22T04:50:52.796Z,13.44
2023-05-22T04:52:33.180Z,13.52
2023-05-22T04:54:13.627Z,13.61
2023-05-22T04:55:54.148Z,13.7
2023-05-22T04:57:34.588Z,13.82
2023-05-22T04:59:14.953Z,13.92
2023-05-22T05:00:55.453Z,14
2023-05-22T05:02:35.961Z,14.11
2023-05-22T05:04:16.383Z,14.19
2023-05-22T05:05:56.675Z,14.28
2023-05-22T05:07:37.025Z,14.37
2023-05-22T05:09:17.414Z,14.47
2023-05-22T05:10:57.813Z,14.55
2023-05-22T05:12:38.215Z,14.65
2023-05-22T05:14:18.683Z,14.79
2023-05-22T05:15:59.046Z,14.85
2023-05-22T05:17:39.525Z,14.99
2023-05-22T05:19:19.914Z,15.07
2023-05-22T05:21:00.386Z,15.17
2023-05-22T05:22:40.801Z,15.31
2023-05-22T05:24:21.326Z,15.41
2023-05-22T05:26:01.716Z,15.5
2023-05-22T05:27:42.136Z,15.58
2023-05-22T05:29:22.547Z,15.69
2023-05-22T05:31:02.947Z,15.82
2023-05-22T05:32:43.461Z,15.91
2023-05-22T05:34:23.772Z,16.06
2023-05-22T05:36:04.152Z,16.19
2023-05-22T05:37:44.510Z,16.37
2023-05-22T05:39:24.806Z,16.53
2023-05-22T05:41:05.295Z,16.7
2023-05-22T05:42:45.641Z,16.81
2023-05-22T05:44:26.140Z,16.98
2023-05-22T05:46:06.564Z,17.25
2023-05-22T05:47:46.955Z,17.59
2023-05-22T05:49:27.268Z,17.86
2023-05-22T05:51:07.707Z,18.15
2023-05-22T05:52:47.980Z,18.38
2023-05-22T05:54:28.390Z,18.55
2023-05-22T05:56:08.893Z,18.72
2023-05-22T05:57:49.263Z,18.83
2023-05-22T05:59:29.624Z,19
2023-05-22T06:01:10.099Z,19.13
2023-05-22T06:02:51.005Z,19.24
2023-05-22T06:04:30.939Z,19.35
2023-05-22T06:06:11.479Z,19.51
2023-05-22T06:07:51.872Z,19.62
2023-05-22T06:09:32.236Z,19.79
2023-05-22T06:11:12.700Z,19.95
2023-05-22T06:12:53.026Z,20.17
2023-05-22T06:14:33.438Z,20.3
2023-05-22T06:16:13.862Z,20.44
2023-05-22T06:17:54.331Z,20.58
2023-05-22T06:19:34.812Z,20.71
2023-05-22T06:21:15.111Z,20.88
2023-05-22T06:22:55.586Z,21.03
2023-05-22T06:24:36.061Z,21.19
2023-05-22T06:26:16.464Z,21.39
2023-05-22T06:27:56.858Z,21.6
2023-05-22T06:29:37.269Z,21.84
2023-05-22T06:31:17.659Z,22.04
2023-05-22T06:32:58.140Z,22.19
2023-05-22T06:34:38.493Z,22.28
2023-05-22T06:36:18.913Z,22.4
2023-05-22T06:37:59.330Z,22.39
2023-05-22T06:39:39.769Z,22.34
2023-05-22T06:41:20.269Z,22.38
2023-05-22T06:43:00.739Z,22.42
2023-05-22T06:44:41.130Z,22.46
2023-05-22T06:46:22.327Z,22.53
2023-05-22T06:48:02.071Z,22.67
2023-05-22T06:49:42.460Z,22.79
2023-05-22T06:51:22.850Z,22.93
2023-05-22T06:53:03.355Z,23
2023-05-22T06:54:43.651Z,22.98
2023-05-22T06:56:24.050Z,23
2023-05-22T06:58:04.520Z,22.97
2023-05-22T06:59:44.908Z,23.11
2023-05-22T07:01:25.333Z,23.19
2023-05-22T07:03:05.678Z,23.25
2023-05-22T07:04:46.046Z,23.44
2023-05-22T07:06:26.513Z,23.56
2023-05-22T07:08:06.919Z,23.82
2023-05-22T07:09:47.263Z,24.04
2023-05-22T07:11:27.719Z,24.24
2023-05-22T07:13:08.283Z,24.48
2023-05-22T07:14:48.822Z,24.57
2023-05-22T07:16:29.314Z,24.58
2023-05-22T07:18:09.655Z,24.65
2023-05-22T07:19:49.925Z,24.71
2023-05-22T07:21:30.332Z,24.81
2023-05-22T07:23:10.664Z,24.96
2023-05-22T07:24:51.143Z,25.06
2023-05-22T07:26:31.568Z,25.13
2023-05-22T07:28:12.017Z,25.17
2023-05-22T07:29:52.459Z,25.22
2023-05-22T07:31:32.880Z,25.12
2023-05-22T07:33:13.349Z,25.15
2023-05-22T07:34:53.712Z,25.23
2023-05-22T07:36:34.131Z,25.3
2023-05-22T07:38:14.600Z,25.32
2023-05-22T07:39:55.099Z,25.32
2023-05-22T07:41:35.586Z,25.22
2023-05-22T07:43:16.036Z,25.32
2023-05-22T07:44:56.483Z,25.41
2023-05-22T07:46:37.022Z,25.54
2023-05-22T07:48:17.431Z,25.74
2023-05-22T07:49:57.878Z,26.01
2023-05-22T07:51:38.368Z,26.06
2023-05-22T07:53:18.807Z,26.26
2023-05-22T07:54:59.301Z,26.4
2023-05-22T07:56:39.600Z,26.36
2023-05-22T07:58:20.047Z,26.47
2023-05-22T08:00:00.538Z,26.6
2023-05-22T08:01:40.761Z,26.84
2023-05-22T08:03:23.782Z,27.04
2023-05-22T08:05:01.708Z,27.27
2023-05-22T08:06:42.095Z,27.31
2023-05-22T08:08:22.464Z,27.39
2023-05-22T08:10:02.877Z,27.46
2023-05-22T08:11:43.283Z,27.22
2023-05-22T08:13:23.631Z,27.39
2023-05-22T08:15:04.056Z,27.53
2023-05-22T08:16:44.516Z,27.56
2023-05-22T08:18:24.849Z,27.67
2023-05-22T08:20:05.381Z,27.87
2023-05-22T08:21:45.719Z,28
2023-05-22T08:23:26.135Z,28.21
2023-05-22T08:25:06.578Z,28.44
2023-05-22T08:26:47.008Z,28.5
2023-05-22T08:28:27.355Z,28.55
2023-05-22T08:30:07.837Z,28.64
2023-05-22T08:31:48.265Z,28.64
2023-05-22T08:33:28.588Z,28.55
2023-05-22T08:35:08.974Z,28.56
2023-05-22T08:36:49.402Z,28.41
2023-05-22T08:38:29.942Z,28.35
2023-05-22T08:40:10.256Z,28.51
2023-05-22T08:41:50.684Z,28.59
2023-05-22T08:43:31.050Z,28.59
2023-05-22T08:45:11.398Z,28.56
2023-05-22T08:46:51.853Z,28.83
2023-05-22T08:48:32.229Z,29.09
2023-05-22T08:50:12.608Z,29.17
2023-05-22T08:51:52.954Z,29.23
2023-05-22T08:53:33.370Z,29.47
2023-05-22T08:55:13.818Z,29.51
2023-05-22T08:56:57.190Z,29.63
2023-05-22T08:58:34.734Z,29.88
2023-05-22T09:00:15.067Z,30.06
2023-05-22T09:01:55.506Z,30.25
2023-05-22T09:03:35.980Z,30.37
2023-05-22T09:05:16.658Z,30.33
2023-05-22T09:06:57.120Z,30.29
2023-05-22T09:08:37.522Z,30.32
2023-05-22T09:10:17.972Z,30.35
2023-05-22T09:11:58.345Z,30.39
2023-05-22T09:13:38.752Z,30.47
2023-05-22T09:15:19.223Z,30.62
2023-05-22T09:16:59.621Z,30.42
2023-05-22T09:18:40.002Z,30.33
2023-05-22T09:20:20.423Z,30.32
2023-05-22T09:22:00.815Z,30.27
2023-05-22T09:23:41.241Z,30.29
2023-05-22T09:25:21.713Z,30.2
2023-05-22T09:27:02.127Z,30.35
2023-05-22T09:28:42.476Z,30.59
2023-05-22T09:30:22.920Z,30.6
2023-05-22T09:32:03.264Z,30.69
2023-05-22T09:33:43.674Z,30.75
2023-05-22T09:35:24.058Z,30.88
2023-05-22T09:37:04.488Z,31.02
2023-05-22T09:38:44.840Z,31.1
2023-05-22T09:40:25.284Z,31.02
2023-05-22T09:42:05.669Z,30.98
2023-05-22T09:43:46.018Z,30.99
2023-05-22T09:45:26.439Z,31.04
2023-05-22T09:47:06.786Z,31.15
2023-05-22T09:48:47.279Z,31.1
2023-05-22T09:50:27.687Z,31.11
2023-05-22T09:52:08.006Z,30.95
2023-05-22T09:53:48.336Z,30.91
2023-05-22T09:55:28.769Z,30.9
2023-05-22T09:57:09.189Z,30.95
2023-05-22T09:58:49.592Z,30.84
2023-05-22T10:00:29.983Z,30.85
2023-05-22T10:02:10.453Z,30.75
2023-05-22T10:03:50.833Z,30.64
2023-05-22T10:05:31.218Z,30.47
2023-05-22T10:07:11.656Z,30.37
2023-05-22T10:08:52.001Z,30.26
2023-05-22T10:10:32.387Z,30.18
2023-05-22T10:12:12.834Z,30.09
2023-05-22T10:13:53.214Z,30.02
2023-05-22T10:15:33.630Z,29.98
2023-05-22T10:17:14.090Z,29.89
2023-05-22T10:18:54.579Z,29.88
2023-05-22T10:20:35.064Z,29.98
2023-05-22T10:22:15.478Z,29.98
2023-05-22T10:23:55.916Z,30.02
2023-05-22T10:25:36.287Z,30.18
2023-05-22T10:27:16.698Z,30.33
2023-05-22T10:28:57.103Z,30.57
2023-05-22T10:30:37.551Z,30.98
2023-05-22T10:32:17.936Z,31.31
2023-05-22T10:33:58.436Z,31.43
2023-05-22T10:35:38.762Z,31.45
2023-05-22T10:37:20.367Z,31.56
2023-05-22T10:38:59.674Z,31.62
2023-05-22T10:40:40.081Z,31.77
2023-05-22T10:42:20.553Z,31.96
2023-05-22T10:44:00.981Z,31.87
2023-05-22T10:45:42.533Z,32.11
2023-05-22T10:47:21.841Z,32.52
2023-05-22T10:49:02.300Z,32.83
2023-05-22T10:50:42.836Z,32.99
2023-05-22T10:52:23.144Z,33.13
2023-05-22T10:54:03.583Z,33.06
2023-05-22T10:55:43.963Z,33.1
2023-05-22T10:57:24.377Z,33.19
2023-05-22T10:59:04.776Z,33.14
2023-05-22T11:00:45.203Z,33.03
2023-05-22T11:02:25.841Z,32.82
2023-05-22T11:04:06.037Z,32.51
2023-05-22T11:05:46.491Z,32.42
2023-05-22T11:07:26.943Z,32.48
2023-05-22T11:09:07.421Z,32.51
2023-05-22T11:10:47.869Z,32.61
2023-05-22T11:12:28.248Z,32.54
2023-05-22T11:14:08.634Z,32.38
2023-05-22T11:15:49.056Z,32.39
2023-05-22T11:17:29.591Z,32.04
2023-05-22T11:19:22.803Z,32
2023-05-22T11:20:50.329Z,32.01
2023-05-22T11:22:30.793Z,32.03
2023-05-22T11:24:11.172Z,32.06
2023-05-22T11:25:51.650Z,31.9
2023-05-22T11:27:32.066Z,31.5
2023-05-22T11:29:12.425Z,31.48
2023-05-22T11:30:52.919Z,31.58
2023-05-22T11:32:33.346Z,31.56
2023-05-22T11:34:13.804Z,31.53
2023-05-22T11:35:54.148Z,31.49
2023-05-22T11:37:34.590Z,31.25
2023-05-22T11:39:14.983Z,31.05
2023-05-22T11:40:55.397Z,30.84
2023-05-22T11:42:35.839Z,30.67
2023-05-22T11:44:16.134Z,30.75
2023-05-22T11:45:56.652Z,30.8
2023-05-22T11:47:36.970Z,30.78
2023-05-22T11:49:17.391Z,30.69
2023-05-22T11:50:57.684Z,30.7
2023-05-22T11:52:38.127Z,30.75
2023-05-22T11:54:18.573Z,30.74
2023-05-22T11:55:58.975Z,30.85
2023-05-22T11:57:39.356Z,31.05
2023-05-22T11:59:19.854Z,31.08
2023-05-22T12:01:00.203Z,31.11
2023-05-22T12:02:40.630Z,30.95
2023-05-22T12:04:21.110Z,30.94
2023-05-22T12:06:01.477Z,30.84
2023-05-22T12:07:41.850Z,30.8
2023-05-22T12:09:22.261Z,30.74
2023-05-22T12:11:02.611Z,30.7
2023-05-22T12:12:43.010Z,30.75
2023-05-22T12:14:23.457Z,30.54
2023-05-22T12:16:04.083Z,30.54
2023-05-22T12:17:44.403Z,30.62
2023-05-22T12:19:24.840Z,30.56
2023-05-22T12:21:05.226Z,30.44
2023-05-22T12:22:45.668Z,30.56
2023-05-22T12:24:26.137Z,30.57
2023-05-22T12:26:06.517Z,30.66
2023-05-22T12:27:46.918Z,30.88
2023-05-22T12:29:27.312Z,31.18
2023-05-22T12:31:07.789Z,31.46
2023-05-22T12:32:48.366Z,31.68
2023-05-22T12:34:28.741Z,32
2023-05-22T12:36:09.322Z,32.37
2023-05-22T12:37:49.556Z,32.75
2023-05-22T12:39:29.974Z,32.71
2023-05-22T12:41:10.326Z,32.57
2023-05-22T12:42:50.702Z,32.46
2023-05-22T12:44:31.102Z,32.38
2023-05-22T12:46:11.528Z,32.52
2023-05-22T12:47:52.006Z,32.64
2023-05-22T12:49:32.411Z,32.76
2023-05-22T12:51:12.820Z,33.03
2023-05-22T12:52:53.260Z,33.2
2023-05-22T12:54:33.609Z,33.24
2023-05-22T12:56:14.051Z,33.58
2023-05-22T12:57:54.485Z,33.84
2023-05-22T12:59:34.917Z,34.05
2023-05-22T13:01:15.415Z,34.19
2023-05-22T13:02:55.841Z,34.42
2023-05-22T13:04:36.325Z,34.47
2023-05-22T13:06:16.644Z,34.55
2023-05-22T13:07:57.112Z,34.59
2023-05-22T13:09:37.585Z,34.71
2023-05-22T13:11:18.006Z,35.04
2023-05-22T13:12:58.458Z,35.1
2023-05-22T13:14:38.935Z,35.18
2023-05-22T13:16:19.444Z,35.15
2023-05-22T13:17:59.829Z,35.24
2023-05-22T13:19:40.229Z,35.41
2023-05-22T13:21:20.654Z,35.53
2023-05-22T13:23:01.151Z,35.69
2023-05-22T13:24:41.562Z,35.68
2023-05-22T13:26:21.969Z,35.68
2023-05-22T13:28:02.380Z,35.68
2023-05-22T13:29:42.785Z,35.75
2023-05-22T13:31:23.206Z,35.59
2023-05-22T13:33:03.726Z,35.66
2023-05-22T13:34:44.101Z,35.8
2023-05-22T13:36:24.568Z,35.68
2023-05-22T13:38:04.931Z,35.47
2023-05-22T13:39:45.393Z,35.31
2023-05-22T13:41:25.754Z,35.04
2023-05-22T13:43:06.261Z,34.62
2023-05-22T13:44:46.637Z,34.18
2023-05-22T13:46:27.088Z,33.81
2023-05-22T13:48:07.454Z,33.6
2023-05-22T13:49:47.870Z,33.39
2023-05-22T13:51:28.290Z,33.22
2023-05-22T13:53:08.639Z,32.9
2023-05-22T13:54:49.037Z,32.79
2023-05-22T13:56:29.528Z,32.52
2023-05-22T13:58:09.940Z,32.2
2023-05-22T13:59:50.392Z,31.8
2023-05-22T14:01:30.927Z,31.45
2023-05-22T14:03:11.378Z,31.2
2023-05-22T14:04:51.754Z,30.85
2023-05-22T14:06:32.102Z,30.67
2023-05-22T14:08:12.538Z,30.5
2023-05-22T14:09:52.973Z,30.4
2023-05-22T14:11:33.415Z,30.29
2023-05-22T14:13:13.826Z,30.15
2023-05-22T14:14:54.272Z,29.95
2023-05-22T14:16:34.721Z,29.87
2023-05-22T14:18:15.196Z,29.84
2023-05-22T14:19:55.666Z,29.71
2023-05-22T14:21:36.066Z,29.6
2023-05-22T14:23:16.517Z,29.51
2023-05-22T14:24:57.002Z,29.4
2023-05-22T14:26:37.456Z,29.44
2023-05-22T14:28:17.869Z,29.4
2023-05-22T14:29:58.361Z,29.37
2023-05-22T14:31:38.758Z,29.34
2023-05-22T14:33:19.164Z,29.29
2023-05-22T14:34:59.560Z,29.24
2023-05-22T14:36:39.923Z,29.19
2023-05-22T14:38:20.334Z,29.19
2023-05-22T14:40:00.784Z,29.16
2023-05-22T14:41:41.212Z,29.1
2023-05-22T14:43:21.590Z,29.14
2023-05-22T14:45:01.957Z,29.07
2023-05-22T14:46:42.601Z,29.05
2023-05-22T14:48:23.005Z,28.98
2023-05-22T14:50:18.092Z,28.78
2023-05-22T14:51:43.624Z,28.66
2023-05-22T14:53:24.059Z,28.64
2023-05-22T14:55:04.518Z,28.58
2023-05-22T14:56:44.919Z,28.56
2023-05-22T14:58:25.359Z,28.52
2023-05-22T15:00:09.051Z,28.48
2023-05-22T15:01:46.288Z,28.43
2023-05-22T15:03:26.703Z,28.34
2023-05-22T15:05:07.244Z,28.35
2023-05-22T15:06:47.442Z,28.17
2023-05-22T15:08:27.775Z,28.14
2023-05-22T15:10:08.171Z,28.08
2023-05-22T15:11:48.614Z,27.99
2023-05-22T15:13:29.012Z,27.85
2023-05-22T15:15:09.492Z,27.73
2023-05-22T15:16:49.883Z,27.55
2023-05-22T15:18:30.232Z,27.49
2023-05-22T15:20:10.654Z,27.42
2023-05-22T15:21:50.994Z,27.25
2023-05-22T15:23:31.345Z,27.1
2023-05-22T15:25:12.237Z,26.97
2023-05-22T15:26:52.095Z,26.81
2023-05-22T15:28:32.463Z,26.62
2023-05-22T15:30:12.890Z,26.46
2023-05-22T15:31:53.349Z,26.39
2023-05-22T15:33:33.746Z,26.25
2023-05-22T15:35:14.130Z,26.16
2023-05-22T15:36:54.627Z,26.06
2023-05-22T15:38:35.065Z,25.99
2023-05-22T15:40:15.536Z,25.96
2023-05-22T15:42:05.736Z,25.87
2023-05-22T15:43:36.328Z,25.77
2023-05-22T15:45:16.836Z,25.68
2023-05-22T15:46:57.285Z,25.58
2023-05-22T15:48:37.794Z,25.46
2023-05-22T15:50:18.190Z,25.22
2023-05-22T15:51:58.643Z,25.1
2023-05-22T15:53:39.072Z,24.99
2023-05-22T15:55:19.457Z,24.86
2023-05-22T15:56:59.776Z,24.74
2023-05-22T15:58:40.163Z,24.67
2023-05-22T16:00:20.542Z,24.57
2023-05-22T16:02:01.017Z,24.51
2023-05-22T16:03:41.631Z,24.47
2023-05-22T16:05:21.880Z,24.41
2023-05-22T16:07:02.270Z,24.34
2023-05-22T16:08:42.786Z,24.24
2023-05-22T16:10:23.205Z,24.16
2023-05-22T16:12:03.560Z,24.06
2023-05-22T16:13:43.971Z,23.99
2023-05-22T16:15:24.356Z,23.95
2023-05-22T16:17:04.817Z,23.93
2023-05-22T16:18:45.165Z,23.9
2023-05-22T16:20:25.597Z,23.82
2023-05-22T16:22:06.086Z,23.77
2023-05-22T16:23:46.494Z,23.73
2023-05-22T16:25:26.931Z,23.65
2023-05-22T16:27:07.389Z,23.61
2023-05-22T16:28:47.836Z,23.56
2023-05-22T16:30:28.284Z,23.52
2023-05-22T16:32:08.691Z,23.44
2023-05-22T16:33:49.144Z,23.35
2023-05-22T16:35:29.481Z,23.28
2023-05-22T16:37:09.950Z,23.19
2023-05-22T16:38:50.331Z,23.11
2023-05-22T16:40:30.727Z,23.03
2023-05-22T16:42:11.120Z,22.98
2023-05-22T16:43:51.618Z,22.91
2023-05-22T16:45:31.933Z,22.87
2023-05-22T16:47:12.426Z,22.8
2023-05-22T16:48:52.860Z,22.67
2023-05-22T16:50:33.316Z,22.52
2023-05-22T16:52:13.779Z,22.4
2023-05-22T16:53:54.205Z,22.27
2023-05-22T16:55:34.572Z,22.13
2023-05-22T16:57:14.973Z,21.92
2023-05-22T16:58:55.380Z,21.7
2023-05-22T17:00:35.792Z,21.53
2023-05-22T17:02:16.251Z,21.34
2023-05-22T17:03:56.664Z,21.19
2023-05-22T17:05:36.994Z,21.03
2023-05-22T17:07:17.392Z,20.85
2023-05-22T17:08:57.830Z,20.72
2023-05-22T17:10:38.126Z,20.54
2023-05-22T17:12:18.467Z,20.4
2023-05-22T17:13:58.928Z,20.2
2023-05-22T17:15:39.544Z,20.09
2023-05-22T17:17:19.803Z,20.03
2023-05-22T17:19:00.345Z,20.01
2023-05-22T17:20:40.698Z,19.9
2023-05-22T17:22:21.137Z,19.79
2023-05-22T17:24:01.596Z,19.72
2023-05-22T17:25:42.208Z,19.66
2023-05-22T17:27:35.024Z,19.54
2023-05-22T17:29:02.790Z,19.5
2023-05-22T17:30:43.427Z,19.38
2023-05-22T17:32:23.714Z,19.31
2023-05-22T17:34:04.113Z,19.25
2023-05-22T17:35:47.657Z,19.18
2023-05-22T17:37:25.026Z,19.13
2023-05-22T17:39:05.418Z,19.07
2023-05-22T17:40:46.467Z,19.02
2023-05-22T17:42:26.298Z,19.04
2023-05-22T17:44:06.755Z,19
2023-05-22T17:45:47.084Z,18.99
2023-05-22T17:47:27.497Z,18.96
2023-05-22T17:49:07.949Z,18.96
2023-05-22T17:50:48.353Z,18.97
2023-05-22T17:52:28.797Z,18.96
2023-05-22T17:54:09.302Z,18.97
2023-05-22T17:55:49.684Z,18.92
2023-05-22T17:57:30.065Z,18.94
2023-05-22T17:59:10.506Z,18.97
2023-05-22T18:00:50.992Z,18.92
2023-05-22T18:02:31.517Z,18.9
2023-05-22T18:04:11.907Z,18.89
2023-05-22T18:05:52.398Z,18.86
2023-05-22T18:07:32.851Z,18.8
2023-05-22T18:09:13.240Z,18.76
2023-05-22T18:10:53.675Z,18.73
2023-05-22T18:12:38.265Z,18.69
2023-05-22T18:14:14.564Z,18.7
2023-05-22T18:15:55.011Z,18.69
2023-05-22T18:17:35.540Z,18.66
2023-05-22T18:19:15.943Z,18.6
2023-05-22T18:20:56.313Z,18.54
2023-05-22T18:22:36.775Z,18.51
2023-05-22T18:24:17.192Z,18.52
2023-05-22T18:25:57.609Z,18.49
2023-05-22T18:27:38.042Z,18.48
2023-05-22T18:29:18.465Z,18.42
2023-05-22T18:30:58.864Z,18.38
2023-05-22T18:32:39.415Z,18.35
2023-05-22T18:34:19.938Z,18.34
2023-05-22T18:36:00.380Z,18.28
2023-05-22T18:37:40.828Z,18.27
2023-05-22T18:39:21.201Z,18.19
2023-05-22T18:41:01.610Z,18.14
2023-05-22T18:42:42.005Z,18.09
2023-05-22T18:44:22.366Z,18.04
2023-05-22T18:46:02.792Z,18.03
2023-05-22T18:47:43.213Z,18
2023-05-22T18:49:23.581Z,17.88
2023-05-22T18:51:04.002Z,17.86
2023-05-22T18:52:44.356Z,17.8
2023-05-22T18:54:24.810Z,17.73
2023-05-22T18:56:05.324Z,17.69
2023-05-22T18:57:45.786Z,17.67
2023-05-22T18:59:26.182Z,17.62
2023-05-22T19:01:09.662Z,17.6
2023-05-22T19:02:46.963Z,17.59
2023-05-22T19:04:27.485Z,17.57
2023-05-22T19:06:07.890Z,17.57
2023-05-22T19:07:48.266Z,17.59
2023-05-22T19:09:28.729Z,17.6
2023-05-22T19:11:09.169Z,17.6
2023-05-22T19:12:49.548Z,17.6
2023-05-22T19:14:29.939Z,17.6
2023-05-22T19:16:10.443Z,17.62
2023-05-22T19:17:50.931Z,17.66
2023-05-22T19:19:31.517Z,17.65
2023-05-22T19:21:11.746Z,17.66
2023-05-22T19:22:52.175Z,17.63
2023-05-22T19:24:32.523Z,17.63
2023-05-22T19:26:12.890Z,17.59
2023-05-22T19:27:53.309Z,17.53
2023-05-22T19:29:33.817Z,17.48
2023-05-22T19:31:14.353Z,17.45
2023-05-22T19:32:54.718Z,17.45
2023-05-22T19:34:35.182Z,17.4
2023-05-22T19:36:15.601Z,17.33
2023-05-22T19:37:56.040Z,17.3
2023-05-22T19:39:36.474Z,17.23
2023-05-22T19:41:16.874Z,17.19
2023-05-22T19:42:57.308Z,17.19
2023-05-22T19:44:37.642Z,17.18
2023-05-22T19:46:18.027Z,17.14
2023-05-22T19:47:58.511Z,17.11
2023-05-22T19:49:38.817Z,17.07
2023-05-22T19:51:19.253Z,17.02
2023-05-22T19:52:59.664Z,17.01
2023-05-22T19:54:40.116Z,16.98
2023-05-22T19:56:20.592Z,16.95
2023-05-22T19:58:00.930Z,16.92
2023-05-22T19:59:48.380Z,16.91
2023-05-22T20:01:21.746Z,16.88
2023-05-22T20:03:02.204Z,16.85
2023-05-22T20:04:42.436Z,16.81
2023-05-22T20:06:22.830Z,16.81
2023-05-22T20:08:03.250Z,16.8
2023-05-22T20:09:43.628Z,16.78
2023-05-22T20:11:24.008Z,16.77
2023-05-22T20:13:04.436Z,16.74
2023-05-22T20:14:44.792Z,16.75
2023-05-22T20:16:27.566Z,16.73
2023-05-22T20:18:05.584Z,16.73
2023-05-22T20:19:45.952Z,16.71
2023-05-22T20:21:26.382Z,16.71
2023-05-22T20:23:06.690Z,16.7
2023-05-22T20:24:47.096Z,16.66
2023-05-22T20:26:27.490Z,16.63
2023-05-22T20:28:07.891Z,16.6
2023-05-22T20:29:48.249Z,16.59
2023-05-22T20:31:28.597Z,16.57
2023-05-22T20:33:09.047Z,16.54
2023-05-22T20:34:49.405Z,16.52
2023-05-22T20:36:29.813Z,16.52
2023-05-22T20:38:10.228Z,16.49
2023-05-22T20:39:50.628Z,16.5
2023-05-22T20:41:30.968Z,16.49
2023-05-22T20:43:11.381Z,16.47
2023-05-22T20:44:51.818Z,16.47
2023-05-22T20:46:32.364Z,16.43
2023-05-22T20:48:12.761Z,16.4
2023-05-22T20:49:53.054Z,16.39
2023-05-22T20:51:33.554Z,16.32
2023-05-22T20:53:13.864Z,16.3
2023-05-22T20:54:54.297Z,16.25
2023-05-22T20:56:34.687Z,16.19
2023-05-22T20:58:15.018Z,16.15
2023-05-22T20:59:55.424Z,16.15
2023-05-22T21:01:35.981Z,16.17
2023-05-22T21:03:16.316Z,16.15
2023-05-22T21:04:56.722Z,16.12
2023-05-22T21:06:37.161Z,16.08
2023-05-22T21:08:17.547Z,16.04
2023-05-22T21:09:58.002Z,15.99
2023-05-22T21:11:38.378Z,15.96
2023-05-22T21:13:18.802Z,15.95
2023-05-22T21:14:59.123Z,15.92
2023-05-22T21:16:39.718Z,15.94
2023-05-22T21:18:19.874Z,15.94
2023-05-22T21:20:00.355Z,15.91
2023-05-22T21:21:40.783Z,15.91
2023-05-22T21:23:23.150Z,15.86
2023-05-22T21:25:01.666Z,15.88
2023-05-22T21:26:42.049Z,15.86
2023-05-22T21:28:22.409Z,15.88
2023-05-22T21:30:02.836Z,15.88
2023-05-22T21:31:43.320Z,15.88
2023-05-22T21:33:23.538Z,15.91
2023-05-22T21:35:03.925Z,15.92
2023-05-22T21:36:44.344Z,15.91
2023-05-22T21:38:24.730Z,15.91
2023-05-22T21:40:05.180Z,15.88